My Meet Scores
Emma Morgan, Aspire Gymnastics Academy - MyMeetScores.com
Top100 | Top Teams | Upcoming Meets | Completed Meets | Latest | Add Scores | Help| Support | Bookmark and Share

Emma Morgan, Aspire Gymnastics Academy
Personal Bests
LevelVault BarsBeamFloorAA
39.4009.300 8.8759.07536.400
49.2009.200 9.2508.82535.600
Meet Scores
Date Meet Team Session Level Division Vault Bars Beam Floor AA
2019-03-22 Illinois Gymnastics State Championships Aspire Gymnastics Academy 4 4 JR A 8.850 14* 9.075 15* 9.050 18T 8.400 26T 35.375 21T
2019-03-08 Lucky Invite Aspire Gymnastics Academy A09 4 Jr B 8.800 6T 9.150 9 8.350 15 8.825 10 35.125 11
2019-02-23 Kinetic Classic 2019 Aspire Gymnastics Academy 1 4 Middle 8.650 10 9.200 17T 8.825 21 8.350 29T 35.025 21
2019-02-15 Big ClassicBIG CLASSIC Aspire Gymnastics Academy 5A 4 Child C 8.875 6T 8.800 10 9.200 8 8.575 10 35.450 6
2019-01-25 UGA Invitational Aspire Gymnastics Academy B06 4 Ch C 8.950 2 8.900 9 9.250 5 8.500 9 35.600 4
2019-01-18 2019 Bravo Classic Aspire Gymnastics Academy 3B 4 Jr 9.050 7 8.800 14 9.100 11T 8.550 17T 35.500 13
2018-12-14 2018 Aspire Classic Aspire Gymnastics Academy 5A 4 Middle 8.850 14T 8.725 17 8.825 22 8.825 18T 35.225 18T
2018-12-07 St. Nick Invite 2018 Aspire Gymnastics Academy 6A 4 JrB 9.200 4 8.675 7 8.100 17 8.750 7 34.725 7T
2018-11-17 Paul Hamm Thanksgiving Class WOMENS Aspire Gymnastics Academy 6 4 Middle 8.750 11 9.075 10 9.000 11T 8.575 27T 35.400 13
2018-03-08 Level 4 & 5 State Aspire Gymnastics Academy All 4 Ch F 8.625 22T 8.100 26 8.725 26 7.850 28 33.300 28
2018-02-16 Big Classic Aspire Gymnastics Academy 2B 4 Child A 8.500 10 7.900 15 8.750 10 8.400 15 33.550 14
2018-01-26 2018 UGA Classic Aspire Gymnastics Academy B2 4 Jr A 8.425 10 8.300 11 9.000 8T 7.600 17 33.325 13
2018-01-19 2018 Bravo Classic Aspire Gymnastics Academy 11B 4 Child 7.900 9 7.700 17 8.550 15T 8.450 17T 32.600 16
2017-12-15 2017 Aspire Classic Aspire Gymnastics Academy 3 4 Jr A 8.775 7 8.000 23 7.950 23 7.675 24 32.400 24
2017-12-08 St. Nick Invite Aspire Gymnastics Academy 7A 4 JrA 8.650 17 8.050 19T 8.750 15T 7.750 20 33.200 20
2017-11-16 Paul Hamm Thanksgiving Classic - Women Aspire Gymnastics Academy 7 4 Younger 8.550 13 8.500 22 8.900 16 8.050 28 34.000 20
2017-03-30 2017 Illinois Level 3 & 5 State Aspire Gymnastics Academy All 3 Yh B 9.225 23T 9.100 15T 8.350 28T 8.875 20 35.550 26
2017-02-24 Kinetic Classic Aspire Gymnastics Academy 4,5,6,7 3 All Ages 8.950 80T 9.300 20T 8.450 79T 8.625 90 35.325 70
2017-02-18 2017 Great Western Invitational Women's Aspire Gymnastics Academy 2 3 Filly 9.350 4 9.100 9T 8.875 9 9.075 13 36.400 8
2017-01-27 2017 UGA Invitational Aspire Gymnastics Academy B6 3 Jr B 8.950 7 9.050 7 8.775 13 8.700 12T 35.475 10
2017-01-20 2017 Bravo Classic Aspire Gymnastics Academy 10B 3 8yrs 9.300 4T 9.200 10 8.675 14T 8.400 18 35.575 15
2016-12-16 2016 Aspire Classic Aspire Gymnastics Academy 11 3 Middle 9.200 8 9.050 12T 8.700 7T 8.800 12T 35.750 9
2016-12-09 St. Nick Invite Aspire Gymnastics Academy 5 3 All 9.350 28T 9.225 21T 8.850 46T 8.500 65T 35.925 42T
2016-11-19 Paul Hamm Thanksgiving Classic - 2016 Girls Aspire Gymnastics Academy 5 3 8 yrs 9.100 6 9.200 2 8.675 4 8.800 6T 35.775 4T
2016-03-04 2016 Illinois Level 3 State Championships Aspire Gymnastics Academy 3 Child-B 9.025 28 7.325 29 7.500 28 7.400 31 31.250 31
2016-02-13 Western Invite Aspire Gymnastics Academy 1 3 Filly 8.950 11T 7.200 24 7.675 19 8.225 22 32.050 23T
2015-12-18 2015 Aspire Classic Aspire Gymnastics Academy 10 3 Younger 9.400 6 7.675 18 8.700 13 7.875 20 33.650 17
2015-12-11 St. Nick Invite Aspire Gymnastics Academy 1B 3 All 8.650 53 7.600 51T 7.100 54 7.400 54 30.750 54
Get your scores on
a t-shirt, pin, or hoodie

www.lazysuits.com